Time;durP1;ratioP1;P1;durP2;ratioP2;P2;SDS_P1;SDS_P2;PMS_P1;PMS_P2;Temp;Humidity;BMP_temperature;BMP_pressure;BME280_temperature;BME280_humidity;BME280_pressure;Samples;Min_cycle;Max_cycle;Signal;HPM_P1;HPM_P2
2021/06/21 00:01:30;;;;;;;4.70;2.47;;;;;;;19.95;69.74;98589.50;5092690;28;20031;-83
2021/06/21 00:03:57;;;;;;;3.08;2.78;;;;;;;19.95;69.83;98584.84;5112538;28;20032;-85
2021/06/21 00:06:22;;;;;;;6.28;2.40;;;;;;;19.92;69.77;98577.41;5096199;28;20063;-84
2021/06/21 00:08:48;;;;;;;2.67;2.47;;;;;;;19.92;69.75;98582.84;5096336;28;20062;-87
2021/06/21 00:11:13;;;;;;;3.30;2.75;;;;;;;19.88;69.97;98581.94;5095871;28;20475;-82
2021/06/21 00:13:39;;;;;;;4.15;2.78;;;;;;;19.87;69.75;98591.22;5096055;28;20026;-83
2021/06/21 00:16:05;;;;;;;5.03;2.75;;;;;;;19.86;69.78;98583.44;5095980;28;20121;-80
2021/06/21 00:18:31;;;;;;;2.72;2.35;;;;;;;19.83;70.16;98576.75;5096154;28;20067;-84
2021/06/21 00:20:56;;;;;;;3.38;2.25;;;;;;;19.81;70.23;98571.69;5095824;28;20466;-83
2021/06/21 00:23:22;;;;;;;2.38;2.17;;;;;;;19.79;70.07;98570.47;5095852;28;20042;-84
2021/06/21 00:25:47;;;;;;;2.47;2.28;;;;;;;19.79;70.05;98576.66;5095777;28;20423;-86
2021/06/21 00:28:14;;;;;;;4.82;2.83;;;;;;;19.77;70.02;98570.78;5095534;28;20497;-82
2021/06/21 00:30:40;;;;;;;2.20;1.98;;;;;;;19.77;70.37;98575.44;5114222;28;20023;-87
2021/06/21 00:33:05;;;;;;;2.00;1.90;;;;;;;19.76;70.33;98579.28;5095337;28;20019;-85
2021/06/21 00:35:31;;;;;;;2.45;2.10;;;;;;;19.75;70.23;98577.69;5095562;28;20034;-85
2021/06/21 00:37:57;;;;;;;2.75;2.45;;;;;;;19.74;70.64;98570.69;5095189;28;20031;-85
2021/06/21 00:40:23;;;;;;;3.08;2.72;;;;;;;19.73;70.55;98574.56;5095522;28;20051;-79
2021/06/21 00:42:49;;;;;;;2.55;2.35;;;;;;;19.70;70.46;98575.25;5095542;28;20371;-88
2021/06/21 00:45:16;;;;;;;3.58;2.38;;;;;;;19.67;70.34;98568.59;5095345;28;20024;-88
2021/06/21 00:47:42;;;;;;;2.88;2.50;;;;;;;19.62;70.38;98571.56;5095671;28;20482;-87
2021/06/21 00:50:09;;;;;;;5.43;3.08;;;;;;;19.64;70.50;98567.38;5095162;28;20030;-84
2021/06/21 00:52:35;;;;;;;2.50;2.25;;;;;;;19.61;70.57;98562.63;5095264;28;20080;-81
2021/06/21 00:55:02;;;;;;;4.95;2.92;;;;;;;19.61;70.60;98562.63;5095277;28;20030;-82
2021/06/21 00:57:33;;;;;;;2.80;2.55;;;;;;;19.61;70.67;98559.16;5095359;28;20035;-80
2021/06/21 01:00:00;;;;;;;3.33;2.80;;;;;;;19.59;70.58;98562.22;5095120;28;20023;-83
2021/06/21 01:02:27;;;;;;;4.03;2.90;;;;;;;19.55;70.71;98558.59;5094917;28;20031;-81
2021/06/21 01:04:53;;;;;;;5.78;2.92;;;;;;;19.50;70.50;98554.22;5095388;28;20062;-85
2021/06/21 01:07:19;;;;;;;4.13;3.38;;;;;;;19.48;70.60;98561.94;5095238;28;20031;-82
2021/06/21 01:09:45;;;;;;;4.97;2.72;;;;;;;19.46;70.66;98561.47;5095198;28;20093;-81
2021/06/21 01:12:47;;;;;;;3.63;2.97;;;;;;;19.45;70.54;98559.13;5094539;28;20038;-80
2021/06/21 01:15:22;;;;;;;4.63;3.03;;;;;;;19.42;70.59;98548.97;5093198;28;20416;-80
2021/06/21 01:17:52;;;;;;;7.05;6.38;;;;;;;19.33;70.52;98552.63;5084129;28;20078;-78
2021/06/21 01:20:36;;;;;;;11.93;10.13;;;;;;;19.29;71.01;98565.28;5113072;28;20034;-78
2021/06/21 01:23:34;;;;;;;12.63;11.43;;;;;;;19.24;71.22;98565.53;5094434;28;20036;-79
2021/06/21 01:26:09;;;;;;;12.93;11.52;;;;;;;19.20;71.60;98562.75;5094361;28;20055;-78
2021/06/21 01:29:02;;;;;;;12.23;10.88;;;;;;;19.19;71.47;98558.44;5113287;28;20027;-77
2021/06/21 01:31:52;;;;;;;12.32;11.13;;;;;;;19.19;71.69;98560.38;5112927;28;20038;-78
2021/06/21 01:34:19;;;;;;;12.43;11.05;;;;;;;19.20;71.55;98553.81;5094302;28;20115;-81
2021/06/21 01:36:50;;;;;;;15.75;13.38;;;;;;;19.18;71.60;98561.50;5094662;28;20031;-81
2021/06/21 01:39:16;;;;;;;13.13;11.85;;;;;;;19.17;71.59;98565.34;5094292;28;20032;-81
2021/06/21 01:41:45;;;;;;;9.80;8.60;;;;;;;19.18;71.70;98558.81;5094219;28;20478;-83
2021/06/21 01:44:11;;;;;;;;;;;;;;;19.17;71.73;98554.50;5094688;28;20118;-80
2021/06/21 01:46:39;;;;;;;6.93;6.22;;;;;;;19.11;71.85;98553.94;5094329;28;19969;-83
2021/06/21 01:49:12;;;;;;;8.73;7.33;;;;;;;19.12;71.96;98558.25;5094288;28;20038;-84
2021/06/21 01:51:40;;;;;;;6.85;5.78;;;;;;;19.12;72.44;98543.91;5094086;28;20038;-82
2021/06/21 01:54:08;;;;;;;6.80;6.20;;;;;;;19.07;72.07;98547.66;5094154;28;20027;-80
2021/06/21 01:56:46;;;;;;;8.00;5.80;;;;;;;19.06;72.04;98556.16;5093996;28;20031;-81
2021/06/21 01:59:12;;;;;;;;;;;;;;;19.06;72.32;98556.91;5094483;28;20508;-84
2021/06/21 02:01:38;;;;;;;7.47;5.53;;;;;;;19.01;72.24;98555.22;5093936;28;19931;-89
2021/06/21 02:04:07;;;;;;;5.53;5.03;;;;;;;19.01;72.37;98563.38;5093899;28;20177;-87
2021/06/21 02:06:35;;;;;;;4.63;4.22;;;;;;;18.97;72.55;98557.06;5093711;28;20031;-85
2021/06/21 02:09:04;;;;;;;5.90;5.30;;;;;;;18.97;72.48;98564.38;5093764;28;20038;-87
2021/06/21 02:11:30;;;;;;;4.28;3.67;;;;;;;18.92;72.55;98561.94;5093596;28;20031;-88
2021/06/21 02:13:56;;;;;;;5.57;4.00;;;;;;;18.89;72.43;98566.09;5093925;28;20496;-85
2021/06/21 02:16:24;;;;;;;6.80;5.47;;;;;;;18.88;72.78;98557.19;5093823;28;20037;-84
2021/06/21 02:18:51;;;;;;;4.40;4.00;;;;;;;18.90;72.79;98564.19;5112123;28;20028;-89
2021/06/21 02:21:21;;;;;;;6.32;4.43;;;;;;;18.91;72.93;98552.19;5093597;28;20039;-92
2021/06/21 02:23:50;;;;;;;4.25;3.85;;;;;;;18.90;72.96;98548.69;5093960;28;20399;-86
2021/06/21 02:26:18;;;;;;;;;;;;;;;18.92;72.92;98549.19;5094054;28;20077;-87
2021/06/21 02:28:44;;;;;;;4.10;3.38;;;;;;;18.92;72.86;98557.31;5093920;28;20378;-89
2021/06/21 02:31:10;;;;;;;3.85;3.22;;;;;;;18.91;72.95;98553.03;5092990;28;20028;-88
2021/06/21 02:33:36;;;;;;;3.63;3.20;;;;;;;18.92;73.07;98557.31;5100220;28;20032;-85
2021/06/21 02:36:03;;;;;;;5.07;3.53;;;;;;;18.93;73.14;98550.78;5099576;28;20024;-83
2021/06/21 02:38:28;;;;;;;3.08;2.88;;;;;;;18.91;72.86;98547.59;5117822;28;20023;-85
2021/06/21 02:40:54;;;;;;;4.82;2.90;;;;;;;18.91;72.93;98553.03;5102916;28;20027;-86
2021/06/21 02:43:19;;;;;;;4.00;3.42;;;;;;;18.93;72.84;98548.06;5098599;28;20186;-86
2021/06/21 02:45:45;;;;;;;3.65;2.88;;;;;;;18.93;72.99;98548.06;5093784;28;20475;-84
2021/06/21 02:48:11;;;;;;;3.13;2.67;;;;;;;18.95;72.81;98553.91;5093528;28;20418;-85
2021/06/21 02:50:42;;;;;;;4.15;3.00;;;;;;;18.93;72.92;98552.66;5111467;28;20052;-83
2021/06/21 02:53:07;;;;;;;3.83;3.30;;;;;;;18.93;72.82;98558.09;5093070;28;20032;-82
2021/06/21 02:55:41;;;;;;;4.63;3.08;;;;;;;18.91;72.73;98558.44;5093444;28;20042;-81
2021/06/21 02:58:17;;;;;;;5.38;3.35;;;;;;;18.90;73.01;98570.38;5093385;28;20544;-81
2021/06/21 03:00:45;;;;;;;5.57;2.78;;;;;;;18.87;73.09;98562.91;5093077;28;20391;-80
2021/06/21 03:03:10;;;;;;;;;;;;;;;18.87;73.04;98566.44;5093547;28;20031;-81
2021/06/21 03:05:41;;;;;;;5.78;3.10;;;;;;;18.84;73.12;98567.09;5111971;28;19908;-81
2021/06/21 03:08:10;;;;;;;4.65;3.50;;;;;;;18.84;73.31;98571.75;5093047;28;20020;-79
2021/06/21 03:10:38;;;;;;;4.35;3.33;;;;;;;18.89;72.63;98585.06;5092887;28;20405;-80
2021/06/21 03:13:04;;;;;;;;;;;;;;;18.91;72.58;98590.13;5111722;28;20019;-81
2021/06/21 03:15:31;;;;;;;7.88;3.42;;;;;;;18.97;72.23;98591.47;5093247;28;19961;-84
2021/06/21 03:17:57;;;;;;;5.57;3.45;;;;;;;19.14;71.90;98587.72;5093159;28;20474;-84
2021/06/21 03:20:23;;;;;;;7.35;3.00;;;;;;;19.47;71.21;98582.03;5092884;28;20023;-85
2021/06/21 03:22:54;;;;;;;4.63;3.30;;;;;;;19.84;70.12;98583.78;5092993;28;20027;-87
2021/06/21 03:25:35;;;;;;;2.85;2.55;;;;;;;20.30;69.03;98588.78;5092599;28;20051;-83
2021/06/21 03:28:12;;;;;;;4.72;2.95;;;;;;;20.78;66.99;98596.84;5092974;28;20067;-84
2021/06/21 03:30:59;;;;;;;3.63;2.42;;;;;;;21.03;65.36;98600.09;5111150;28;20024;-83
2021/06/21 03:33:25;;;;;;;3.20;2.85;;;;;;;21.14;64.80;98599.53;5092561;28;20053;-85
2021/06/21 03:35:51;;;;;;;2.45;2.20;;;;;;;21.17;64.11;98598.81;5092817;28;20028;-85
2021/06/21 03:38:22;;;;;;;6.22;3.42;;;;;;;21.13;64.01;98587.88;5093104;28;20019;-86
2021/06/21 03:40:49;;;;;;;2.70;2.45;;;;;;;21.09;63.97;98592.44;5096646;28;20110;-84
2021/06/21 03:43:17;;;;;;;4.25;3.03;;;;;;;21.01;63.99;98605.09;5096398;28;20028;-81
2021/06/21 03:45:43;;;;;;;;;;;;;;;20.90;64.43;98595.94;5096751;28;20032;-81
2021/06/21 03:48:09;;;;;;;6.50;2.85;;;;;;;20.77;64.58;98596.06;5096702;28;20367;-80
2021/06/21 03:50:36;;;;;;;7.57;3.00;;;;;;;20.71;65.34;98596.66;5096520;28;20081;-79
2021/06/21 03:53:02;;;;;;;7.43;3.28;;;;;;;20.62;65.29;98600.38;5114628;28;20038;-78
2021/06/21 03:55:27;;;;;;;5.25;3.30;;;;;;;20.55;65.51;98599.41;5096207;28;20111;-77
2021/06/21 03:57:55;;;;;;;5.63;3.20;;;;;;;20.48;65.42;98592.69;5114959;28;20078;-78
2021/06/21 04:00:23;;;;;;;9.45;3.13;;;;;;;20.43;65.70;98597.59;5114670;28;20062;-79
2021/06/21 04:02:49;;;;;;;6.85;3.95;;;;;;;20.40;65.71;98592.88;5114535;28;20067;-79
2021/06/21 04:05:15;;;;;;;9.68;4.03;;;;;;;20.40;66.23;98598.31;5095945;28;20066;-79
2021/06/21 04:07:42;;;;;;;4.70;3.15;;;;;;;20.37;66.40;98588.91;5114536;28;20677;-79
2021/06/21 04:10:11;;;;;;;3.83;3.25;;;;;;;20.63;66.28;98590.28;5113992;28;20022;-79
2021/06/21 04:12:37;;;;;;;3.40;2.45;;;;;;;21.06;66.03;98585.00;5114259;28;20087;-77
2021/06/21 04:15:07;;;;;;;3.80;2.50;;;;;;;21.67;64.89;98583.47;5114092;28;20436;-77
2021/06/21 04:17:34;;;;;;;5.22;4.00;;;;;;;22.45;62.83;98581.59;5114346;28;20429;-77
2021/06/21 04:20:00;;;;;;;5.60;3.97;;;;;;;23.28;60.54;98574.53;5114492;28;20023;-80
2021/06/21 04:22:25;;;;;;;3.40;2.10;;;;;;;24.03;58.28;98579.94;5082261;28;20155;-79
2021/06/21 04:24:51;;;;;;;5.47;3.00;;;;;;;24.65;56.18;98572.94;5093822;28;20115;-80
2021/06/21 04:27:16;;;;;;;4.38;3.20;;;;;;;25.04;54.25;98577.84;5085568;28;20417;-81
2021/06/21 04:29:41;;;;;;;6.18;3.25;;;;;;;25.23;52.97;98584.16;5093103;28;20023;-81
2021/06/21 04:32:07;;;;;;;4.15;3.75;;;;;;;25.30;52.38;98592.38;5086891;28;20020;-83
2021/06/21 04:34:33;;;;;;;13.52;5.43;;;;;;;25.26;52.11;98597.84;5093144;28;20038;-86
2021/06/21 04:36:58;;;;;;;4.60;3.28;;;;;;;25.18;52.15;98590.00;5095893;28;20027;-85
2021/06/21 04:39:24;;;;;;;4.80;3.35;;;;;;;25.22;52.28;98583.38;5094996;28;20035;-86
2021/06/21 04:41:49;;;;;;;8.15;2.78;;;;;;;25.49;52.68;98587.78;5095142;28;20020;-86
2021/06/21 04:44:15;;;;;;;3.95;3.55;;;;;;;25.92;51.91;98587.84;5095103;28;20410;-86
2021/06/21 04:46:41;;;;;;;5.43;3.50;;;;;;;26.38;50.98;98578.06;5096431;28;20069;-86
2021/06/21 04:49:11;;;;;;;5.97;2.75;;;;;;;26.81;49.89;98580.69;5095792;28;20505;-86
2021/06/21 04:51:36;;;;;;;4.18;2.70;;;;;;;27.28;48.94;98586.00;5094394;28;20056;-88
2021/06/21 04:54:02;;;;;;;4.00;2.67;;;;;;;27.76;47.60;98590.03;5095504;28;20027;-87
2021/06/21 04:56:27;;;;;;;3.65;2.70;;;;;;;28.25;47.02;98590.06;5095277;28;20410;-87
2021/06/21 04:58:54;;;;;;;4.97;3.17;;;;;;;28.81;45.71;98589.16;5096355;28;20057;-89
2021/06/21 05:01:20;;;;;;;4.32;3.15;;;;;;;29.22;44.62;98585.50;5096273;28;20431;-89
2021/06/21 05:03:45;;;;;;;3.60;3.30;;;;;;;29.59;43.97;98587.75;5095440;28;20082;-86
2021/06/21 05:06:11;;;;;;;4.10;2.80;;;;;;;29.86;42.97;98591.28;5094950;28;20031;-88
2021/06/21 05:08:37;;;;;;;5.40;3.38;;;;;;;29.93;41.81;98589.63;5095375;28;20093;-87
2021/06/21 05:11:03;;;;;;;5.22;3.70;;;;;;;29.82;42.15;98581.50;5095181;28;20074;-88
2021/06/21 05:13:28;;;;;;;2.85;2.33;;;;;;;29.62;42.75;98587.72;5095832;28;20059;-87
2021/06/21 05:15:54;;;;;;;5.38;4.85;;;;;;;29.34;43.28;98594.41;5095959;28;20031;-86
2021/06/21 05:18:20;;;;;;;6.78;3.03;;;;;;;29.04;43.44;98595.94;5094944;28;20031;-88
2021/06/21 05:20:45;;;;;;;3.25;2.60;;;;;;;28.73;44.65;98590.41;5095094;28;20027;-88
2021/06/21 05:23:11;;;;;;;5.00;2.83;;;;;;;28.45;45.04;98592.25;5094683;28;20046;-88
2021/06/21 05:25:36;;;;;;;4.93;3.22;;;;;;;28.14;45.56;98597.63;5094581;28;20071;-88
2021/06/21 05:28:03;;;;;;;3.70;3.30;;;;;;;27.85;46.52;98597.81;5094869;28;20027;-89
2021/06/21 05:30:29;;;;;;;7.15;3.75;;;;;;;27.55;47.26;98587.44;5094455;28;20576;-87
2021/06/21 05:32:55;;;;;;;8.18;3.08;;;;;;;27.33;48.26;98582.84;5094727;28;20028;-88
2021/06/21 05:35:21;;;;;;;4.68;3.28;;;;;;;27.14;48.72;98595.06;5094533;28;20035;-87
2021/06/21 05:37:48;;;;;;;3.97;2.97;;;;;;;26.94;49.54;98593.97;5094948;28;20406;-87
2021/06/21 05:40:15;;;;;;;3.40;3.10;;;;;;;26.72;50.14;98594.03;5094448;28;20498;-88
2021/06/21 05:42:41;;;;;;;2.88;2.25;;;;;;;26.55;51.22;98587.44;5094617;28;20035;-88
2021/06/21 05:45:07;;;;;;;3.35;3.03;;;;;;;26.45;51.88;98593.69;5094400;28;20035;-87
2021/06/21 05:47:33;;;;;;;4.40;3.05;;;;;;;26.39;52.41;98598.00;5094718;28;20032;-88
2021/06/21 05:49:58;;;;;;;5.47;2.92;;;;;;;26.36;53.13;98602.31;5094757;28;20116;-88
2021/06/21 05:52:24;;;;;;;3.45;3.05;;;;;;;26.33;53.20;98597.63;5094878;28;20026;-88
2021/06/21 05:54:49;;;;;;;8.77;3.53;;;;;;;26.30;53.02;98603.91;5094384;28;20024;-87
2021/06/21 05:57:15;;;;;;;5.05;3.20;;;;;;;26.26;52.98;98595.69;5095730;28;20039;-88
2021/06/21 05:59:40;;;;;;;2.63;2.42;;;;;;;26.17;52.82;98600.78;5095891;28;20027;-87
2021/06/21 06:02:06;;;;;;;2.70;2.20;;;;;;;26.04;52.67;98605.84;5094544;28;20026;-88
2021/06/21 06:04:31;;;;;;;3.17;2.95;;;;;;;26.08;53.32;98600.41;5094239;28;20051;-88
2021/06/21 06:06:56;;;;;;;2.35;2.10;;;;;;;26.29;53.74;98603.13;5094400;28;20031;-88
2021/06/21 06:09:22;;;;;;;2.47;1.98;;;;;;;26.76;52.10;98610.53;5093892;28;20024;-87
2021/06/21 06:11:48;;;;;;;3.65;2.03;;;;;;;27.32;51.45;98610.69;5094149;28;20115;-87
2021/06/21 06:14:14;;;;;;;2.60;2.10;;;;;;;27.92;49.97;98608.78;5093817;28;20081;-86
2021/06/21 06:16:40;;;;;;;6.38;2.17;;;;;;;28.57;48.32;98602.72;5093748;28;20031;-86
2021/06/21 06:19:05;;;;;;;2.00;1.90;;;;;;;29.16;46.79;98600.91;5112511;28;20105;-86
2021/06/21 06:21:31;;;;;;;2.20;1.77;;;;;;;29.72;44.71;98613.53;5093623;28;20127;-87
2021/06/21 06:23:57;;;;;;;2.92;1.90;;;;;;;30.15;44.05;98612.91;5093190;28;20586;-87
2021/06/21 06:26:23;;;;;;;1.98;1.52;;;;;;;30.55;43.77;98608.69;5093435;28;20031;-86
2021/06/21 06:28:49;;;;;;;1.92;1.80;;;;;;;30.85;42.33;98607.72;5111705;28;20494;-87
2021/06/21 06:31:14;;;;;;;2.13;1.92;;;;;;;31.14;41.78;98602.44;5093374;28;20039;-87
2021/06/21 06:33:40;;;;;;;1.92;1.70;;;;;;;31.36;41.37;98604.75;5093530;28;20116;-87
2021/06/21 06:36:06;;;;;;;1.98;1.88;;;;;;;31.39;41.07;98611.38;5093580;28;20028;-87
2021/06/21 06:38:31;;;;;;;1.77;1.67;;;;;;;31.48;40.42;98613.56;5093605;28;20023;-87
2021/06/21 06:40:58;;;;;;;1.92;1.83;;;;;;;31.39;39.71;98611.38;5093547;28;20437;-87
2021/06/21 06:43:23;;;;;;;1.63;1.52;;;;;;;31.39;40.57;98611.38;5093451;28;20028;-87
2021/06/21 06:45:49;;;;;;;2.25;1.83;;;;;;;31.30;40.30;98603.69;5093548;28;20093;-88
2021/06/21 06:48:14;;;;;;;2.08;1.70;;;;;;;31.22;40.68;98605.03;5094937;28;20024;-87
2021/06/21 06:50:40;;;;;;;5.15;1.92;;;;;;;31.20;40.56;98599.16;5094479;28;20027;-85
2021/06/21 06:53:06;;;;;;;2.20;1.58;;;;;;;31.25;41.29;98602.22;5093619;28;20035;-86
2021/06/21 06:58:16;;;;;;;3.05;2.22;;;;;;;31.27;40.69;98604.53;5111298;28;20100;-86
2021/06/21 07:00:41;;;;;;;2.13;1.90;;;;;;;31.26;40.67;98600.22;5093147;28;20028;-86
2021/06/21 07:03:08;;;;;;;1.90;1.80;;;;;;;31.23;40.03;98595.56;5093306;28;20032;-86
2021/06/21 07:05:34;;;;;;;1.90;1.75;;;;;;;31.23;40.17;98593.56;5092996;28;20020;-86
2021/06/21 07:08:00;;;;;;;1.97;1.60;;;;;;;31.18;39.62;98587.78;5093165;28;20028;-87
2021/06/21 07:10:26;;;;;;;2.63;1.45;;;;;;;31.17;40.00;98589.75;5093019;28;20031;-85
2021/06/21 07:12:51;;;;;;;127.88;12.57;;;;;;;31.06;39.05;98578.13;5093075;28;20398;-86
2021/06/21 07:15:17;;;;;;;62.05;10.93;;;;;;;30.90;38.86;98585.16;5096832;28;20024;-85
2021/06/21 07:17:43;;;;;;;507.08;65.38;;;;;;;30.79;38.61;98592.88;5097401;28;20027;-86
2021/06/21 07:20:10;;;;;;;5.40;2.35;;;;;;;30.63;38.76;98586.06;5097304;28;20031;-86
2021/06/21 07:22:35;;;;;;;25.95;4.90;;;;;;;30.51;40.12;98586.69;5097051;28;20023;-86
2021/06/21 07:25:01;;;;;;;23.38;6.40;;;;;;;30.46;40.93;98585.16;5097145;28;20047;-85
2021/06/21 07:27:27;;;;;;;2.13;1.60;;;;;;;30.40;40.36;98586.09;5096893;28;20449;-86
2021/06/21 07:29:53;;;;;;;2.30;2.10;;;;;;;30.31;40.91;98587.41;5096836;28;20055;-85
2021/06/21 07:32:19;;;;;;;3.67;3.35;;;;;;;30.31;41.16;98592.13;5096674;28;20161;-85
2021/06/21 07:34:44;;;;;;;2.45;2.20;;;;;;;30.26;39.83;98585.16;5115184;28;20059;-85
2021/06/21 07:37:09;;;;;;;2.85;1.80;;;;;;;30.24;39.65;98582.03;5096817;28;20031;-85
2021/06/21 07:39:35;;;;;;;100.75;8.77;;;;;;;30.22;40.05;98583.66;5096730;28;20032;-85
2021/06/21 07:42:01;;;;;;;26.63;4.95;;;;;;;30.17;39.11;98590.41;5096864;28;20060;-86
2021/06/21 07:44:26;;;;;;;1.38;1.27;;;;;;;29.96;40.03;98586.06;5096537;28;20024;-85
2021/06/21 07:46:51;;;;;;;2.45;1.80;;;;;;;29.92;40.77;98596.34;5096776;28;20077;-86
2021/06/21 07:49:17;;;;;;;2.08;1.55;;;;;;;29.66;39.61;98590.41;5096482;28;20034;-85
2021/06/21 07:51:43;;;;;;;3.72;2.17;;;;;;;29.46;40.48;98590.31;5096618;28;20023;-86
2021/06/21 07:54:11;;;;;;;6.85;2.05;;;;;;;29.37;40.78;98582.59;5096687;28;20024;-86
2021/06/21 07:56:37;;;;;;;1.70;1.55;;;;;;;29.18;41.24;98593.00;5096386;28;20027;-85
2021/06/21 07:59:02;;;;;;;9.40;2.22;;;;;;;28.95;41.25;98601.19;5096522;28;20027;-86
2021/06/21 08:01:27;;;;;;;1.23;1.10;;;;;;;28.86;41.87;98599.69;5096370;28;20501;-86
2021/06/21 08:03:55;;;;;;;2.45;1.48;;;;;;;28.81;42.23;98599.34;5096340;28;20084;-85
2021/06/21 08:06:21;;;;;;;2.30;2.10;;;;;;;28.63;42.70;98597.56;5096198;28;20027;-87
2021/06/21 08:08:46;;;;;;;2.22;2.13;;;;;;;28.53;42.70;98604.72;5096338;28;20406;-85
2021/06/21 08:11:12;;;;;;;5.68;2.67;;;;;;;28.46;44.18;98606.78;5096298;28;20494;-85
2021/06/21 08:13:38;;;;;;;8.13;3.05;;;;;;;28.34;43.40;98603.34;5114251;28;20036;-86
2021/06/21 08:16:04;;;;;;;5.47;2.40;;;;;;;28.26;43.97;98599.13;5096125;28;20463;-86
2021/06/21 08:18:30;;;;;;;3.45;3.15;;;;;;;28.22;44.43;98598.34;5095709;28;20028;-85
2021/06/21 08:20:55;;;;;;;2.22;2.05;;;;;;;28.21;45.31;98600.31;5096043;28;20040;-84
2021/06/21 08:23:21;;;;;;;7.38;3.33;;;;;;;28.18;45.35;98606.63;5114420;28;20036;-84
2021/06/21 08:25:47;;;;;;;5.22;3.75;;;;;;;28.23;45.48;98606.19;5095569;28;20138;-84
2021/06/21 08:28:13;;;;;;;4.13;3.80;;;;;;;28.27;45.24;98612.44;5095841;28;20030;-84
2021/06/21 08:30:39;;;;;;;2.40;1.92;;;;;;;28.32;45.79;98616.72;5095709;28;20035;-84
2021/06/21 08:33:05;;;;;;;3.08;2.72;;;;;;;28.31;45.43;98617.91;5096908;28;20098;-84
2021/06/21 08:35:32;;;;;;;10.10;2.83;;;;;;;28.29;44.93;98612.03;5095708;28;20038;-84
2021/06/21 08:37:58;;;;;;;2.90;2.67;;;;;;;28.23;45.24;98603.44;5095952;28;20549;-84
2021/06/21 08:40:24;;;;;;;5.25;3.10;;;;;;;28.23;44.46;98619.94;5095268;28;20059;-83
2021/06/21 08:42:51;;;;;;;3.65;1.40;;;;;;;28.22;44.92;98615.63;5095755;28;20035;-85
2021/06/21 08:45:17;;;;;;;4.90;2.55;;;;;;;28.32;44.19;98622.22;5114273;28;20027;-85
2021/06/21 08:47:43;;;;;;;3.15;2.95;;;;;;;28.38;44.37;98617.06;5095399;28;20035;-85
2021/06/21 08:50:11;;;;;;;14.85;2.30;;;;;;;28.46;44.89;98620.53;5096031;28;20032;-85
2021/06/21 08:52:36;;;;;;;;;;;;;;;28.51;44.16;98614.59;5095522;28;20019;-85
2021/06/21 08:55:04;;;;;;;4.45;2.40;;;;;;;28.61;44.81;98608.19;5113529;28;19911;-84
2021/06/21 08:57:32;;;;;;;17.90;3.00;;;;;;;28.70;45.33;98616.78;5095248;28;20020;-85
2021/06/21 08:59:57;;;;;;;;;;;;;;;28.74;44.42;98619.50;5114342;28;20035;-84
2021/06/21 09:02:22;;;;;;;2.10;1.20;;;;;;;28.82;43.45;98620.97;5095156;28;19911;-84
2021/06/21 09:04:48;;;;;;;1.80;1.60;;;;;;;28.89;44.32;98612.66;5095373;28;20054;-85
2021/06/21 09:07:23;;;;;;;4.70;1.88;;;;;;;29.04;42.76;98620.72;5095132;28;20406;-85
2021/06/21 09:09:50;;;;;;;1.02;0.30;;;;;;;29.13;43.05;98621.00;5095151;28;20028;-85
2021/06/21 09:12:31;;;;;;;0.10;0.10;;;;;;;29.21;41.90;98624.44;5095109;28;20019;-84
2021/06/21 09:14:58;;;;;;;0.20;0.20;;;;;;;29.20;41.43;98612.66;5095149;28;20032;-85
2021/06/21 09:17:25;;;;;;;;;;;;;;;29.22;41.34;98623.25;5095442;28;20089;-85
2021/06/21 09:19:54;;;;;;;0.35;0.30;;;;;;;29.16;39.78;98622.16;5095151;28;19914;-85
2021/06/21 09:22:40;;;;;;;0.00;0.00;;;;;;;29.10;39.30;98618.28;5094933;28;20028;-85
2021/06/21 09:25:15;;;;;;;0.10;0.10;;;;;;;29.05;41.33;98620.31;5094757;28;20406;-84
2021/06/21 09:27:41;;;;;;;0.10;0.10;;;;;;;29.12;40.84;98624.94;5094528;28;20515;-84
2021/06/21 09:30:11;;;;;;;0.00;0.00;;;;;;;29.17;41.31;98618.22;5094943;28;20488;-84
2021/06/21 09:32:39;;;;;;;0.15;0.15;;;;;;;29.26;41.38;98631.47;5112719;28;20062;-85
2021/06/21 09:35:05;;;;;;;0.00;0.00;;;;;;;29.32;41.37;98621.56;5094763;28;20039;-86
2021/06/21 09:37:43;;;;;;;0.00;0.00;;;;;;;29.43;40.41;98615.94;5112252;28;20024;-83
2021/06/21 09:40:08;;;;;;;;;;;;;;;29.51;38.25;98617.41;5095089;28;20046;-86
2021/06/21 09:42:36;;;;;;;0.00;0.00;;;;;;;29.49;36.96;98615.06;5094324;28;20298;-84
2021/06/21 09:45:01;;;;;;;0.00;0.00;;;;;;;29.48;36.68;98612.69;5094404;28;20459;-85
2021/06/21 09:47:41;;;;;;;0.00;0.00;;;;;;;29.48;35.87;98615.47;5094214;28;20114;-85
2021/06/21 09:50:17;;;;;;;0.00;0.00;;;;;;;29.56;36.27;98622.44;5112805;28;20491;-86
2021/06/21 09:52:48;;;;;;;0.00;0.00;;;;;;;29.58;38.66;98613.75;5094011;28;20027;-85
2021/06/21 09:55:16;;;;;;;0.00;0.00;;;;;;;29.67;39.69;98608.50;5094207;28;20081;-85
2021/06/21 09:57:42;;;;;;;;;;;;;;;29.59;38.46;98607.03;5112722;28;20031;-85
2021/06/21 10:00:10;;;;;;;0.00;0.00;;;;;;;29.49;39.71;98601.28;5094310;28;19908;-85
2021/06/21 10:02:36;;;;;;;0.00;0.00;;;;;;;29.41;40.39;98610.84;5093882;28;20024;-84
2021/06/21 10:05:18;;;;;;;0.00;0.00;;;;;;;29.34;40.45;98597.16;5094092;28;20032;-84
2021/06/21 10:07:44;;;;;;;0.00;0.00;;;;;;;29.19;40.32;98597.31;5093231;28;20174;-84
2021/06/21 10:10:11;;;;;;;0.10;0.10;;;;;;;29.17;41.30;98598.94;5112135;28;20110;-84
2021/06/21 10:12:38;;;;;;;0.00;0.00;;;;;;;29.09;41.77;98590.00;5112029;28;20023;-88
2021/06/21 10:15:06;;;;;;;0.03;0.03;;;;;;;29.11;43.17;98598.59;5094667;28;20184;-85
2021/06/21 10:17:31;;;;;;;0.00;0.00;;;;;;;29.17;42.30;98582.41;5112339;28;20468;-85
2021/06/21 10:19:57;;;;;;;0.10;0.10;;;;;;;29.14;39.89;98581.28;5094418;28;20035;-86
2021/06/21 10:22:24;;;;;;;0.15;0.15;;;;;;;29.03;41.02;98581.41;5094010;28;20019;-85
2021/06/21 10:24:51;;;;;;;1.27;0.32;;;;;;;28.94;38.54;98585.84;5093289;28;20138;-85
2021/06/21 10:27:18;;;;;;;0.00;0.00;;;;;;;28.82;38.84;98582.44;5093748;28;20026;-85
2021/06/21 10:29:45;;;;;;;0.00;0.00;;;;;;;28.78;40.70;98576.19;5093282;28;20032;-85
2021/06/21 10:32:11;;;;;;;0.10;0.10;;;;;;;28.82;39.75;98585.22;5093610;28;20069;-85
2021/06/21 10:34:37;;;;;;;0.10;0.10;;;;;;;28.90;40.54;98583.91;5093600;28;20266;-85
2021/06/21 10:37:11;;;;;;;0.00;0.00;;;;;;;28.96;38.83;98584.25;5093675;28;20040;-84
2021/06/21 10:39:43;;;;;;;0.00;0.00;;;;;;;28.96;38.22;98577.97;5093380;28;20399;-85
2021/06/21 10:42:09;;;;;;;0.03;0.03;;;;;;;28.98;38.37;98576.38;5111522;28;20032;-85
2021/06/21 10:44:41;;;;;;;0.00;0.00;;;;;;;28.97;37.34;98577.56;5093321;28;20033;-86
2021/06/21 10:47:30;;;;;;;0.00;0.00;;;;;;;28.94;37.72;98575.59;5093382;28;20139;-85
2021/06/21 10:50:19;;;;;;;0.00;0.00;;;;;;;28.94;37.31;98572.84;5111666;28;20085;-85
2021/06/21 10:52:53;;;;;;;0.08;0.08;;;;;;;28.96;38.65;98558.69;5079690;28;20128;-84
2021/06/21 10:55:29;;;;;;;0.00;0.00;;;;;;;29.02;38.72;98563.31;5093194;28;20402;-85
2021/06/21 10:58:08;;;;;;;0.00;0.00;;;;;;;29.12;39.54;98563.59;5093361;28;20024;-85
2021/06/21 11:00:42;;;;;;;0.20;0.20;;;;;;;29.12;38.25;98564.38;5093184;28;20027;-85
2021/06/21 11:03:23;;;;;;;0.00;0.00;;;;;;;29.15;39.12;98568.28;5093155;28;20028;-84
2021/06/21 11:05:50;;;;;;;0.00;0.00;;;;;;;29.16;39.13;98564.34;5093022;28;20032;-84
2021/06/21 11:08:20;;;;;;;0.20;0.20;;;;;;;29.12;38.53;98564.38;5093585;28;20620;-86
2021/06/21 11:10:48;;;;;;;0.00;0.00;;;;;;;29.07;39.86;98573.09;5092786;28;20031;-85
2021/06/21 11:13:32;;;;;;;0.00;0.00;;;;;;;29.05;39.82;98573.53;5092908;28;20124;-84
2021/06/21 11:16:13;;;;;;;0.10;0.10;;;;;;;28.98;38.33;98562.59;5092877;28;20023;-82
2021/06/21 11:18:38;;;;;;;0.00;0.00;;;;;;;28.92;37.85;98567.00;5111132;28;20390;-86
2021/06/21 11:21:13;;;;;;;0.00;0.00;;;;;;;28.93;38.41;98571.31;5111030;28;20019;-84
2021/06/21 11:23:43;;;;;;;0.03;0.03;;;;;;;28.88;38.24;98563.50;5092811;28;20452;-86
2021/06/21 11:26:09;;;;;;;0.00;0.00;;;;;;;28.83;38.07;98566.72;5110653;28;20036;-86
2021/06/21 11:28:40;;;;;;;0.00;0.00;;;;;;;28.77;38.43;98551.84;5092367;28;20031;-83
2021/06/21 11:31:26;;;;;;;0.00;0.00;;;;;;;28.84;39.38;98566.28;5092953;28;20034;-84
2021/06/21 11:34:00;;;;;;;0.00;0.00;;;;;;;28.85;39.69;98556.84;5092650;28;20031;-83
2021/06/21 11:36:46;;;;;;;0.10;0.10;;;;;;;28.80;40.04;98559.28;5092766;28;20525;-85
2021/06/21 11:39:17;;;;;;;0.00;0.00;;;;;;;28.81;40.00;98567.13;5092904;28;20036;-84
2021/06/21 11:41:55;;;;;;;0.00;0.00;;;;;;;28.80;40.80;98557.31;5111092;28;20045;-84